Daily Tabular Data
[Select Refresh to Update]


2/16/18
Time         Wind Dir   Wind Spd  Wind Gust     Hum In   Humidity    Temp In       Temp  Raw Barom   Tot Rain Wind Chill Heat Ix In Heat Index  Dew Point  DailyRain   HourRain   RainRate
                            mph        mph          %          %         F         F         in         in         F         F         F         F         in         in      in/hr
12:00am            90          0          4         34         37       71.0       58.0      29.30       1.93       58.0       70.5       57.7       31.9       0.00       0.00      0.000
12:30am            81          1          4         34         40       70.8       55.5      29.30       1.93       55.5       70.3       55.4       31.6       0.00       0.00      0.000
1:00am             98          1          2         33         33       70.7       58.3      29.30       1.93       58.3       70.1       57.7       29.3       0.00       0.00      0.000
1:30am             76          3          6         33         28       70.6       59.4      29.30       1.93       59.4       70.0       58.5       26.3       0.00       0.00      0.000
2:00am            287          1          8         33         26       70.5       61.3      29.29       1.93       61.3       69.9       60.2       26.2       0.00       0.00      0.000
2:30am            325          1         11         34         22       70.5       61.4      29.29       1.93       61.4       70.0       60.1       22.2       0.00       0.00      0.000
3:00am            276          0         11         34         21       70.5       62.0      29.28       1.93       62.0       70.0       60.6       21.6       0.00       0.00      0.000
3:30am            279          1         11         33         21       70.5       61.8      29.27       1.93       61.8       69.9       60.4       21.5       0.00       0.00      0.000
4:00am             70          0          9         33         22       70.4       62.4      29.26       1.93       62.4       69.8       61.1       23.1       0.00       0.00      0.000
4:30am             70          0          0         33         22       70.5       62.4      29.27       1.93       62.4       69.9       61.1       23.1       0.00       0.00     -0.010
5:00am             70          0          0         33         22       70.3       62.4      29.27       1.93       62.4       69.7       61.1       23.1       0.00       0.00     -0.010
5:30am             70          0          0         31         22       70.3       62.4      29.29       1.93       62.4       69.6       61.1       23.1       0.00       0.00     -0.010
6:00am             70          0          0         32         22       70.1       62.4      29.29       1.93       62.4       69.4       61.1       23.1       0.00       0.00     -0.010
6:30am             70          0          0         32         22       69.9       62.4      29.28       1.93       62.4       69.2       61.1       23.1       0.00       0.00     -0.010
7:00am             70          0          0         32         22       70.0       62.4      29.27       1.93       62.4       69.3       61.1       23.1       0.00       0.00     -0.010
7:30am             70          0          0         32         22       69.9       62.4      29.27       1.93       62.4       69.2       61.1       23.1       0.00       0.00     -0.010
8:00am             46          0          4         32         25       69.9       64.5      29.28       1.93       64.5       69.2       63.4       27.9       0.00       0.00      0.000
8:30am             78          0          4         31         21       70.6       65.8      29.29       1.93       65.8       69.9       64.4       24.8       0.00       0.00      0.000
9:00am             78          9         12         31         17       70.3       69.0      29.29       1.93       69.0       69.6       67.4       22.4       0.00       0.00      0.000
9:30am            295          0         10         29         16       72.2       71.6      29.29       1.93       71.6       71.3       70.0       23.1       0.00       0.00      0.000
10:00am           269          0          7         30         19       71.0       69.0      29.30       1.93       69.0       70.2       67.5       25.1       0.00       0.00      0.000
10:30am           277          2          8         30         18       70.7       69.9      29.29       1.93       69.9       69.9       68.4       24.5       0.00       0.00      0.000
11:00am           279          3         18         31         12       70.8       69.7      29.29       1.93       69.7       70.1       67.9       14.9       0.00       0.00      0.000
11:30am           296         10         21         31         12       70.8       71.4      29.27       1.93       71.4       70.1       69.6       16.2       0.00       0.00      0.000
12:00pm            66          4         12         31         13       70.8       74.4      29.26       1.93       74.4       70.1       72.6       20.4       0.00       0.00      0.000
12:30pm           256          0         19         31         13       70.9       73.5      29.24       1.93       73.5       70.2       71.7       19.7       0.00       0.00      0.000
1:00pm            277          0         12         31         13       71.0       74.1      29.23       1.93       74.1       70.3       72.3       20.2       0.00       0.00      0.000
1:30pm            246          0          9         31         12       71.1       78.3      29.21       1.93       78.3       70.4       76.5       21.6       0.00       0.00      0.000
2:00pm             80          1         14         31         13       71.2       75.6      29.20       1.93       75.6       70.5       73.8       21.3       0.00       0.00      0.000
2:30pm            242          3         18         32         16       71.3       74.7      29.19       1.93       74.7       70.6       73.1       25.6       0.00       0.00      0.000
3:00pm            195          0         14         32         18       71.4       73.9      29.19       1.93       73.9       70.7       72.4       27.8       0.00       0.00      0.000
3:30pm            212          0          9         32         23       71.6       73.2      29.19       1.93       73.2       70.9       72.0       33.2       0.00       0.00      0.000
4:00pm            210          4         12         32         19       71.6       71.9      29.20       1.93       71.9       70.9       70.4       27.4       0.00       0.00      0.000
4:30pm            252          0         13         32         20       71.7       71.2      29.21       1.93       71.2       71.0       69.8       28.1       0.00       0.00      0.000
5:00pm            274          0          9         32         19       71.8       71.2      29.22       1.93       71.2       71.1       69.7       26.9       0.00       0.00      0.000
5:30pm            259          0          5         32         21       71.9       69.5      29.23       1.93       69.5       71.2       68.1       27.9       0.00       0.00      0.000
6:00pm            202          0          3         32         45       71.9       66.2      29.24       1.93       66.2       71.2       66.5       44.3       0.00       0.00      0.000
6:30pm            205          0          0         32         28       71.9       64.0      29.24       1.93       64.0       71.2       63.1       30.3       0.00       0.00      0.000
7:00pm            205          0          0         32         38       72.0       61.2      29.25       1.93       61.2       71.3       61.0       35.4       0.00       0.00      0.000
7:30pm             61          1          2         31         27       71.9       60.8      29.25       1.93       60.8       71.2       59.8       26.6       0.00       0.00      0.000
8:00pm             74          0          2         30         34       71.9       58.9      29.25       1.93       58.9       71.1       58.4       30.6       0.00       0.00      0.000
8:30pm             53          0          2         30         29       71.9       58.1      29.26       1.93       58.1       71.1       57.2       26.0       0.00       0.00      0.000
9:00pm             53          0          1         29         29       71.8       58.3      29.26       1.93       58.3       70.9       57.4       26.2       0.00       0.00      0.000
9:30pm             84          0          1         29         32       71.7       57.5      29.27       1.93       57.5       70.8       56.8       27.9       0.00       0.00      0.000
10:00pm            47          0          1         28         33       71.5       56.3      29.27       1.93       56.3       70.6       55.7       27.6       0.00       0.00      0.000
10:30pm            61          0          0         28         33       71.4       56.5      29.27       1.93       56.5       70.5       55.9       27.8       0.00       0.00      0.000
11:00pm            85          0          3         28         30       71.2       56.7      29.27       1.93       56.7       70.3       55.9       25.6       0.00       0.00      0.000
11:30pm            87          2          3         28         30       71.0       56.6      29.26       1.93       56.6       70.1       55.8       25.5       0.00       0.00      0.000